RKSS/GMP METAR and TAF weather

Enter ICAO airport designator
Station Type Date Time Source
RKSS METAR 2024/02/26 16:00 UTC NOAA

RKSS 261600Z 32002KT CAVOK 01/M03 Q1030 NOSIG


Station Type Date Time Source
RKSS Decoded METAR 2024/02/26 16:00 UTC NOAA

Seoul / Kimp'O International Airport, Korea, South (RKSS) 37-33N 126-48E 18M
Feb 26, 2024 - 11:00 AM EST / 2024.02.26 1600 UTC
Wind: from the NW (320 degrees) at 2 MPH (2 KT):0
Visibility: greater than 7 mile(s):0
Temperature: 33 F (1 C)
Dew Point: 26 F (-3 C)
Relative Humidity: 74%
Pressure (altimeter): 30.42 in. Hg (1030 hPa)
ob: RKSS 261600Z 32002KT CAVOK 01/M03 Q1030 NOSIG
cycle: 16

Station Type Date Time Source
RKSS TAF 2024/02/26 12:09 UTC NOAA